createdAt,value
2022-10-23T00:00:20.684Z,52.42
2022-10-23T00:02:56.967Z,52.22
2022-10-23T00:05:26.813Z,52.43
2022-10-23T00:07:56.402Z,52.48
2022-10-23T00:10:25.468Z,52.23
2022-10-23T00:12:55.760Z,52.38
2022-10-23T00:15:27.650Z,52.17
2022-10-23T00:17:55.814Z,52.09
2022-10-23T00:20:24.703Z,52.17
2022-10-23T00:22:53.752Z,52.33
2022-10-23T00:25:22.020Z,52.19
2022-10-23T00:27:50.484Z,52.12
2022-10-23T00:30:20.789Z,52.55
2022-10-23T00:32:51.486Z,52.40
2022-10-23T00:35:19.910Z,52.39
2022-10-23T00:37:50.439Z,52.39
2022-10-23T00:40:20.895Z,52.20
2022-10-23T00:42:49.654Z,52.05
2022-10-23T00:45:23.829Z,52.15
2022-10-23T00:47:53.126Z,52.46
2022-10-23T00:50:25.829Z,52.42
2022-10-23T00:52:55.840Z,52.33
2022-10-23T00:55:26.491Z,52.39
2022-10-23T00:57:54.924Z,52.46
2022-10-23T01:00:27.800Z,52.42
2022-10-23T01:02:57.017Z,52.46
2022-10-23T01:05:32.046Z,52.34
2022-10-23T01:08:09.098Z,52.27
2022-10-23T01:10:42.682Z,52.44
2022-10-23T01:13:16.797Z,52.31
2022-10-23T01:15:52.599Z,52.43
2022-10-23T01:18:32.864Z,52.29
2022-10-23T01:21:07.168Z,52.24
2022-10-23T01:23:58.539Z,52.60
2022-10-23T01:26:39.111Z,52.60
2022-10-23T01:29:15.628Z,52.27
2022-10-23T01:31:50.613Z,52.30
2022-10-23T01:34:25.495Z,52.22
2022-10-23T01:36:55.620Z,52.43
2022-10-23T01:39:29.796Z,52.22
2022-10-23T01:42:05.414Z,52.29
2022-10-23T01:44:40.250Z,52.33
2022-10-23T01:47:11.359Z,52.45
2022-10-23T01:49:42.478Z,52.61
2022-10-23T01:52:15.846Z,52.34
2022-10-23T01:54:45.838Z,52.31
2022-10-23T01:57:20.300Z,52.43
2022-10-23T02:00:00.420Z,52.47
2022-10-23T02:02:32.197Z,52.40
2022-10-23T02:05:04.695Z,52.45
2022-10-23T02:07:33.785Z,52.45
2022-10-23T02:10:02.109Z,52.45
2022-10-23T02:12:43.001Z,52.36
2022-10-23T02:15:16.725Z,52.32
2022-10-23T02:17:52.352Z,52.50
2022-10-23T02:20:27.742Z,52.43
2022-10-23T02:23:02.615Z,52.56
2022-10-23T02:25:36.800Z,52.54
2022-10-23T02:28:08.380Z,52.49
2022-10-23T02:30:44.324Z,52.28
2022-10-23T02:33:13.833Z,52.32
2022-10-23T02:35:42.784Z,52.47
2022-10-23T02:38:32.975Z,52.43
2022-10-23T02:41:13.080Z,52.64
2022-10-23T02:43:50.732Z,52.44
2022-10-23T02:46:26.640Z,52.55
2022-10-23T02:49:05.362Z,52.72
2022-10-23T02:51:45.053Z,52.47
2022-10-23T02:54:21.391Z,52.51
2022-10-23T02:56:58.659Z,52.52
2022-10-23T02:59:33.511Z,52.45
2022-10-23T03:02:20.961Z,52.67
2022-10-23T03:04:50.055Z,52.43
2022-10-23T03:07:21.011Z,52.44
2022-10-23T03:09:52.435Z,52.40
2022-10-23T03:12:21.298Z,52.49
2022-10-23T03:14:49.408Z,52.61
2022-10-23T03:17:19.581Z,52.65
2022-10-23T03:19:49.073Z,52.43
2022-10-23T03:22:20.331Z,52.53
2022-10-23T03:24:49.300Z,52.47
2022-10-23T03:27:18.095Z,52.36
2022-10-23T03:29:47.004Z,52.59
2022-10-23T03:32:16.860Z,52.42
2022-10-23T03:34:48.444Z,52.62
2022-10-23T03:37:18.341Z,52.66
2022-10-23T03:39:46.754Z,52.59
2022-10-23T03:42:17.379Z,52.49
2022-10-23T03:44:45.849Z,52.56
2022-10-23T03:47:14.021Z,52.49
2022-10-23T03:49:43.062Z,52.69
2022-10-23T03:52:13.382Z,52.67
2022-10-23T03:54:41.799Z,52.68
2022-10-23T03:57:10.167Z,52.67
2022-10-23T03:59:38.744Z,52.52
2022-10-23T04:02:10.802Z,52.55
2022-10-23T04:04:40.106Z,52.54
2022-10-23T04:07:09.872Z,52.85
2022-10-23T04:09:40.343Z,52.53
2022-10-23T04:12:09.491Z,52.73
2022-10-23T04:14:38.094Z,52.43
2022-10-23T04:17:06.207Z,52.78
2022-10-23T04:19:34.962Z,52.76
2022-10-23T04:22:03.624Z,52.58
2022-10-23T04:24:32.171Z,52.76
2022-10-23T04:27:02.471Z,52.87
2022-10-23T04:29:32.523Z,52.84
2022-10-23T04:32:01.451Z,52.68
2022-10-23T04:34:29.601Z,52.75
2022-10-23T04:36:57.692Z,52.86
2022-10-23T04:39:25.849Z,52.53
2022-10-23T04:41:57.558Z,52.59
2022-10-23T04:44:27.573Z,52.83
2022-10-23T04:47:00.425Z,52.60
2022-10-23T04:49:28.636Z,52.72
2022-10-23T04:52:02.058Z,52.82
2022-10-23T04:54:30.600Z,52.71
2022-10-23T04:57:00.833Z,52.59
2022-10-23T04:59:35.761Z,52.57
2022-10-23T05:02:04.472Z,52.86
2022-10-23T05:04:33.313Z,52.58
2022-10-23T05:07:03.713Z,52.69
2022-10-23T05:09:36.164Z,52.79
2022-10-23T05:12:05.163Z,52.80
2022-10-23T05:14:35.457Z,52.71
2022-10-23T05:17:12.148Z,52.94
2022-10-23T05:19:44.434Z,52.98
2022-10-23T05:22:13.887Z,52.92
2022-10-23T05:24:42.771Z,52.71
2022-10-23T05:27:12.811Z,52.82
2022-10-23T05:29:42.686Z,52.56
2022-10-23T05:32:15.278Z,52.71
2022-10-23T05:34:45.923Z,52.76
2022-10-23T05:37:16.205Z,52.97
2022-10-23T05:39:44.819Z,52.88
2022-10-23T05:42:13.400Z,52.73
2022-10-23T05:44:43.592Z,53.11
2022-10-23T05:47:12.194Z,53.08
2022-10-23T05:49:41.326Z,52.82
2022-10-23T05:52:13.563Z,52.88
2022-10-23T05:54:42.534Z,53.11
2022-10-23T05:57:11.858Z,53.12
2022-10-23T05:59:46.304Z,52.84
2022-10-23T06:02:16.214Z,53.08
2022-10-23T06:04:45.727Z,52.92
2022-10-23T06:07:16.205Z,52.93
2022-10-23T06:09:45.382Z,53.12
2022-10-23T06:12:15.670Z,52.80
2022-10-23T06:14:46.436Z,53.12
2022-10-23T06:17:15.327Z,52.86
2022-10-23T06:19:49.467Z,53.15
2022-10-23T06:24:48.275Z,53.15
2022-10-23T06:27:17.665Z,52.87
2022-10-23T06:29:47.514Z,53.06
2022-10-23T06:32:15.970Z,52.87
2022-10-23T06:34:44.198Z,52.93
2022-10-23T06:37:12.750Z,53.18
2022-10-23T06:39:41.607Z,53.15
2022-10-23T06:42:09.904Z,52.92
2022-10-23T06:44:40.213Z,53.09
2022-10-23T06:47:10.794Z,52.97
2022-10-23T06:49:38.840Z,52.98
2022-10-23T06:52:14.248Z,53.17
2022-10-23T06:54:51.497Z,53.11
2022-10-23T06:57:19.619Z,52.92
2022-10-23T06:59:48.257Z,53.24
2022-10-23T07:02:19.387Z,53.10
2022-10-23T07:04:49.288Z,53.00
2022-10-23T07:07:17.577Z,53.20
2022-10-23T07:09:51.386Z,53.20
2022-10-23T07:12:19.393Z,53.24
2022-10-23T07:14:47.473Z,53.08
2022-10-23T07:17:15.746Z,53.14
2022-10-23T07:19:45.333Z,53.08
2022-10-23T07:22:15.788Z,53.13
2022-10-23T07:24:44.316Z,53.35
2022-10-23T07:27:12.327Z,53.39
2022-10-23T07:29:40.380Z,53.39
2022-10-23T07:32:09.280Z,53.22
2022-10-23T07:34:38.789Z,53.16
2022-10-23T07:37:08.181Z,53.54
2022-10-23T07:39:36.472Z,53.36
2022-10-23T07:42:04.760Z,53.16
2022-10-23T07:44:32.759Z,53.20
2022-10-23T07:47:00.858Z,53.32
2022-10-23T07:49:37.875Z,53.65
2022-10-23T07:52:07.753Z,53.50
2022-10-23T07:54:36.033Z,53.45
2022-10-23T07:57:04.099Z,53.53
2022-10-23T07:59:35.854Z,53.41
2022-10-23T08:02:13.249Z,53.34
2022-10-23T08:04:42.656Z,53.66
2022-10-23T08:07:12.242Z,53.31
2022-10-23T08:09:40.537Z,53.35
2022-10-23T08:12:08.997Z,53.50
2022-10-23T08:14:37.525Z,53.55
2022-10-23T08:17:09.909Z,53.31
2022-10-23T08:19:38.256Z,53.35
2022-10-23T08:22:06.267Z,53.38
2022-10-23T08:24:35.633Z,53.43
2022-10-23T08:27:12.630Z,53.58
2022-10-23T08:30:09.307Z,53.53
2022-10-23T08:32:49.765Z,53.50
2022-10-23T08:35:20.885Z,53.35
2022-10-23T08:37:50.680Z,53.68
2022-10-23T08:40:25.078Z,53.42
2022-10-23T08:42:57.462Z,53.61
2022-10-23T08:45:33.212Z,53.65
2022-10-23T08:48:07.940Z,53.77
2022-10-23T08:50:42.136Z,53.90
2022-10-23T08:53:34.820Z,54.05
2022-10-23T08:56:11.645Z,53.72
2022-10-23T08:58:46.234Z,53.76
2022-10-23T09:01:37.644Z,53.90
2022-10-23T09:04:06.796Z,53.59
2022-10-23T09:06:43.819Z,53.93
2022-10-23T09:09:30.511Z,53.88
2022-10-23T09:12:04.948Z,53.63
2022-10-23T09:14:57.061Z,53.84
2022-10-23T09:17:27.798Z,53.53
2022-10-23T09:20:02.981Z,53.89
2022-10-23T09:22:31.031Z,53.58
2022-10-23T09:24:59.443Z,53.62
2022-10-23T09:27:35.563Z,53.83
2022-10-23T09:30:03.993Z,53.58
2022-10-23T09:32:39.757Z,53.73
2022-10-23T09:35:09.471Z,53.69
2022-10-23T09:38:02.174Z,53.89
2022-10-23T09:40:39.439Z,53.63
2022-10-23T09:43:22.376Z,54.02
2022-10-23T09:45:59.956Z,53.99
2022-10-23T09:48:29.102Z,53.92
2022-10-23T09:51:05.390Z,53.83
2022-10-23T09:53:38.105Z,53.87
2022-10-23T09:56:11.953Z,53.73
2022-10-23T09:58:54.947Z,53.78
2022-10-23T10:01:27.224Z,53.99
2022-10-23T10:03:55.601Z,53.73
2022-10-23T10:06:25.860Z,54.14
2022-10-23T10:08:56.914Z,53.98
2022-10-23T10:11:33.020Z,53.86
2022-10-23T10:14:32.243Z,54.32
2022-10-23T10:17:21.773Z,54.03
2022-10-23T10:20:09.652Z,54.09
2022-10-23T10:22:44.322Z,53.98
2022-10-23T10:25:19.808Z,53.90
2022-10-23T10:27:59.019Z,54.09
2022-10-23T10:30:37.127Z,53.74
2022-10-23T10:33:15.678Z,53.78
2022-10-23T10:35:54.150Z,54.01
2022-10-23T10:38:42.855Z,54.47
2022-10-23T10:41:56.858Z,54.53
2022-10-23T10:44:49.053Z,54.21
2022-10-23T10:47:27.983Z,54.28
2022-10-23T10:50:09.079Z,54.04
2022-10-23T10:52:49.237Z,54.53
2022-10-23T10:55:30.957Z,54.50
2022-10-23T10:58:04.424Z,54.34
2022-10-23T11:00:36.391Z,54.26
2022-10-23T11:03:24.254Z,54.44
2022-10-23T11:05:56.965Z,54.40
2022-10-23T11:08:44.399Z,54.46
2022-10-23T11:11:30.450Z,54.28
2022-10-23T11:13:59.562Z,54.49
2022-10-23T11:16:31.696Z,54.27
2022-10-23T11:19:13.154Z,54.76
2022-10-23T11:21:50.691Z,54.55
2022-10-23T11:24:52.389Z,54.59
2022-10-23T11:27:36.874Z,54.72
2022-10-23T11:30:24.023Z,54.67
2022-10-23T11:33:20.792Z,54.63
2022-10-23T11:36:14.409Z,55.32
2022-10-23T11:38:45.903Z,54.63
2022-10-23T11:41:26.684Z,54.91
2022-10-23T11:44:01.668Z,54.61
2022-10-23T11:46:35.402Z,54.90
2022-10-23T11:49:07.446Z,54.67
2022-10-23T11:51:40.931Z,54.87
2022-10-23T11:54:26.367Z,56.05
2022-10-23T11:57:16.829Z,55.21
2022-10-23T11:59:59.586Z,55.40
2022-10-23T12:02:36.970Z,55.48
2022-10-23T12:05:10.561Z,55.15
2022-10-23T12:07:43.332Z,55.28
2022-10-23T12:10:24.821Z,55.60
2022-10-23T12:12:58.342Z,55.34
2022-10-23T12:15:34.260Z,55.25
2022-10-23T12:18:15.873Z,55.51
2022-10-23T12:20:54.778Z,55.19
2022-10-23T12:23:53.401Z,55.87
2022-10-23T12:26:46.049Z,55.39
2022-10-23T12:29:27.889Z,55.51
2022-10-23T12:32:09.367Z,55.38
2022-10-23T12:34:49.799Z,55.14
2022-10-23T12:37:54.789Z,55.66
2022-10-23T12:40:30.467Z,55.13
2022-10-23T12:43:03.339Z,55.26
2022-10-23T12:45:34.606Z,55.25
2022-10-23T12:48:03.163Z,55.07
2022-10-23T12:50:34.472Z,55.35
2022-10-23T12:53:06.847Z,55.10
2022-10-23T12:55:51.157Z,55.63
2022-10-23T12:58:23.388Z,55.41
2022-10-23T13:00:54.142Z,55.11
2022-10-23T13:03:24.457Z,55.25
2022-10-23T13:05:55.859Z,55.01
2022-10-23T13:08:30.100Z,55.31
2022-10-23T13:11:04.547Z,55.48
2022-10-23T13:13:35.144Z,55.30
2022-10-23T13:16:16.285Z,55.50
2022-10-23T13:18:45.184Z,55.28
2022-10-23T13:21:21.356Z,55.22
2022-10-23T13:23:50.827Z,55.23
2022-10-23T13:26:32.588Z,55.47
2022-10-23T13:29:09.466Z,55.38
2022-10-23T13:31:39.213Z,55.50
2022-10-23T13:34:21.143Z,55.63
2022-10-23T13:37:01.567Z,55.56
2022-10-23T13:39:33.073Z,55.54
2022-10-23T13:42:12.718Z,55.46
2022-10-23T13:44:42.888Z,55.37
2022-10-23T13:47:15.248Z,55.29
2022-10-23T13:49:45.296Z,55.31
2022-10-23T13:52:18.634Z,55.50
2022-10-23T13:54:51.668Z,55.28
2022-10-23T13:57:26.272Z,55.65
2022-10-23T13:59:57.125Z,55.52
2022-10-23T14:02:28.999Z,55.47
2022-10-23T14:04:57.432Z,55.47
2022-10-23T14:07:30.838Z,55.50
2022-10-23T14:10:00.484Z,55.48
2022-10-23T14:12:34.959Z,55.63
2022-10-23T14:15:12.635Z,55.47
2022-10-23T14:17:45.305Z,55.37
2022-10-23T14:20:17.382Z,55.41
2022-10-23T14:22:48.261Z,55.59
2022-10-23T14:25:17.028Z,55.48
2022-10-23T14:27:49.078Z,55.39
2022-10-23T14:30:19.029Z,55.50
2022-10-23T14:32:53.967Z,55.78
2022-10-23T14:35:25.781Z,55.70
2022-10-23T14:37:54.412Z,55.59
2022-10-23T14:40:24.693Z,55.56
2022-10-23T14:43:01.585Z,55.75
2022-10-23T14:45:31.569Z,55.79
2022-10-23T14:48:04.650Z,55.68
2022-10-23T14:50:37.343Z,55.90
2022-10-23T14:53:08.597Z,55.71
2022-10-23T14:55:44.168Z,55.82
2022-10-23T14:58:17.141Z,55.67
2022-10-23T15:00:50.597Z,55.83
2022-10-23T15:03:22.660Z,55.93
2022-10-23T15:05:51.493Z,55.59
2022-10-23T15:08:20.417Z,55.69
2022-10-23T15:10:52.702Z,55.94
2022-10-23T15:13:22.844Z,55.70
2022-10-23T15:15:51.080Z,55.86
2022-10-23T15:18:19.841Z,55.83
2022-10-23T15:20:54.161Z,56.20
2022-10-23T15:23:22.528Z,56.07
2022-10-23T15:25:57.774Z,56.16
2022-10-23T15:28:28.343Z,55.93
2022-10-23T15:30:57.000Z,56.06
2022-10-23T15:33:33.428Z,56.17
2022-10-23T15:36:01.627Z,56.07
2022-10-23T15:38:30.256Z,56.02
2022-10-23T15:41:16.199Z,56.30
2022-10-23T15:43:55.208Z,56.04
2022-10-23T15:46:23.573Z,56.19
2022-10-23T15:48:57.957Z,55.90
2022-10-23T15:51:26.273Z,55.93
2022-10-23T15:53:54.382Z,56.24
2022-10-23T15:56:23.751Z,56.06
2022-10-23T15:58:55.224Z,56.08
2022-10-23T16:01:28.707Z,56.34
2022-10-23T16:03:56.736Z,56.18
2022-10-23T16:06:24.933Z,56.15
2022-10-23T16:11:24.688Z,56.04
2022-10-23T16:13:56.332Z,56.00
2022-10-23T16:16:24.951Z,56.14
2022-10-23T16:18:53.133Z,55.95
2022-10-23T16:21:23.177Z,56.07
2022-10-23T16:23:52.540Z,55.83
2022-10-23T16:26:21.143Z,55.98
2022-10-23T16:28:50.151Z,55.80
2022-10-23T16:31:21.321Z,56.02
2022-10-23T16:33:50.543Z,55.77
2022-10-23T16:36:19.343Z,55.92
2022-10-23T16:38:47.418Z,55.97
2022-10-23T16:41:16.047Z,55.91
2022-10-23T16:43:44.124Z,56.03
2022-10-23T16:46:15.526Z,56.05
2022-10-23T16:48:45.365Z,55.95
2022-10-23T16:51:15.606Z,55.94
2022-10-23T16:53:44.717Z,55.81
2022-10-23T16:56:15.381Z,55.99
2022-10-23T16:58:43.928Z,55.89
2022-10-23T17:01:19.332Z,56.25
2022-10-23T17:03:51.527Z,56.00
2022-10-23T17:06:21.980Z,55.88
2022-10-23T17:08:50.828Z,55.97
2022-10-23T17:11:23.538Z,55.92
2022-10-23T17:13:58.483Z,55.84
2022-10-23T17:16:36.970Z,55.87
2022-10-23T17:19:15.870Z,55.78
2022-10-23T17:21:52.396Z,55.81
2022-10-23T17:24:21.158Z,55.90
2022-10-23T17:26:52.055Z,55.82
2022-10-23T17:29:20.140Z,55.94
2022-10-23T17:31:52.146Z,55.58
2022-10-23T17:34:24.080Z,55.97
2022-10-23T17:36:56.059Z,56.01
2022-10-23T17:39:30.224Z,55.68
2022-10-23T17:41:59.457Z,55.89
2022-10-23T17:44:30.631Z,55.88
2022-10-23T17:46:58.938Z,55.86
2022-10-23T17:49:28.468Z,55.72
2022-10-23T17:51:58.381Z,55.76
2022-10-23T17:54:28.155Z,55.90
2022-10-23T17:56:56.646Z,55.89
2022-10-23T17:59:25.751Z,55.64
2022-10-23T18:01:56.852Z,55.83
2022-10-23T18:04:24.966Z,55.59
2022-10-23T18:06:54.969Z,55.84
2022-10-23T18:09:23.749Z,55.98
2022-10-23T18:11:52.947Z,55.73
2022-10-23T18:14:26.235Z,55.88
2022-10-23T18:16:57.677Z,55.98
2022-10-23T18:19:25.719Z,55.78
2022-10-23T18:21:57.625Z,55.82
2022-10-23T18:24:26.783Z,55.62
2022-10-23T18:26:58.006Z,55.77
2022-10-23T18:29:26.206Z,55.92
2022-10-23T18:31:54.543Z,55.71
2022-10-23T18:34:24.268Z,55.97
2022-10-23T18:36:57.781Z,55.93
2022-10-23T18:39:27.284Z,55.64
2022-10-23T18:42:00.508Z,55.91
2022-10-23T18:44:30.221Z,55.67
2022-10-23T18:47:00.604Z,55.58
2022-10-23T18:49:29.192Z,55.89
2022-10-23T18:52:01.054Z,55.69
2022-10-23T18:54:29.765Z,55.98
2022-10-23T18:56:58.762Z,55.73
2022-10-23T18:59:29.129Z,55.77
2022-10-23T19:01:59.384Z,55.83
2022-10-23T19:04:35.548Z,55.83
2022-10-23T19:07:07.758Z,55.84
2022-10-23T19:09:36.373Z,55.80
2022-10-23T19:12:06.165Z,55.97
2022-10-23T19:14:34.356Z,55.90
2022-10-23T19:17:05.640Z,55.97
2022-10-23T19:19:37.380Z,55.84
2022-10-23T19:22:33.604Z,55.81
2022-10-23T19:25:17.306Z,55.84
2022-10-23T19:28:01.575Z,55.75
2022-10-23T19:30:30.060Z,55.98
2022-10-23T19:33:32.963Z,55.96
2022-10-23T19:36:05.220Z,55.93
2022-10-23T19:38:35.821Z,55.89
2022-10-23T19:41:04.976Z,55.73
2022-10-23T19:43:33.114Z,55.80
2022-10-23T19:46:06.352Z,55.92
2022-10-23T19:48:39.628Z,55.87
2022-10-23T19:51:09.423Z,55.63
2022-10-23T19:53:38.967Z,55.85
2022-10-23T19:56:10.590Z,55.92
2022-10-23T19:58:40.861Z,55.65
2022-10-23T20:01:10.914Z,55.86
2022-10-23T20:03:39.307Z,55.83
2022-10-23T20:06:10.208Z,55.79
2022-10-23T20:08:42.727Z,55.84
2022-10-23T20:11:19.512Z,55.61
2022-10-23T20:13:49.253Z,55.80
2022-10-23T20:16:19.464Z,55.78
2022-10-23T20:18:48.938Z,55.62
2022-10-23T20:21:17.504Z,55.69
2022-10-23T20:23:46.984Z,55.75
2022-10-23T20:26:17.299Z,55.62
2022-10-23T20:28:48.647Z,55.67
2022-10-23T20:31:19.851Z,55.86
2022-10-23T20:33:48.444Z,55.73
2022-10-23T20:36:24.910Z,55.76
2022-10-23T20:38:55.042Z,55.86
2022-10-23T20:41:28.639Z,55.69
2022-10-23T20:43:57.286Z,55.66
2022-10-23T20:46:27.120Z,55.92
2022-10-23T20:49:02.023Z,55.70
2022-10-23T20:51:30.311Z,55.43
2022-10-23T20:54:00.091Z,55.80
2022-10-23T20:56:32.667Z,55.87
2022-10-23T20:59:03.697Z,55.60
2022-10-23T21:01:35.326Z,55.75
2022-10-23T21:04:06.925Z,55.64
2022-10-23T21:06:46.165Z,55.59
2022-10-23T21:09:32.714Z,55.76
2022-10-23T21:12:01.094Z,55.58
2022-10-23T21:14:29.814Z,55.72
2022-10-23T21:16:58.647Z,55.80
2022-10-23T21:19:26.716Z,55.69
2022-10-23T21:21:58.119Z,55.64
2022-10-23T21:24:27.660Z,55.60
2022-10-23T21:26:59.104Z,55.37
2022-10-23T21:29:27.152Z,55.55
2022-10-23T21:31:56.150Z,55.76
2022-10-23T21:34:25.324Z,55.52
2022-10-23T21:37:12.292Z,55.66
2022-10-23T21:39:43.043Z,55.55
2022-10-23T21:42:12.129Z,55.63
2022-10-23T21:44:40.658Z,55.57
2022-10-23T21:47:09.994Z,55.39
2022-10-23T21:49:41.037Z,55.22
2022-10-23T21:52:09.135Z,55.62
2022-10-23T21:54:37.180Z,55.58
2022-10-23T21:57:06.851Z,55.66
2022-10-23T21:59:35.907Z,55.66
2022-10-23T22:02:04.886Z,55.54
2022-10-23T22:04:33.689Z,55.39
2022-10-23T22:07:02.800Z,55.62
2022-10-23T22:09:31.065Z,55.49
2022-10-23T22:12:00.834Z,55.61
2022-10-23T22:14:30.398Z,55.43
2022-10-23T22:16:59.147Z,55.50
2022-10-23T22:19:27.201Z,55.31
2022-10-23T22:21:55.517Z,55.47
2022-10-23T22:24:23.536Z,55.66
2022-10-23T22:26:53.786Z,55.57
2022-10-23T22:29:23.584Z,55.44
2022-10-23T22:31:53.608Z,55.47
2022-10-23T22:34:28.612Z,55.42
2022-10-23T22:37:10.561Z,55.31
2022-10-23T22:39:38.665Z,55.25
2022-10-23T22:42:07.359Z,55.39
2022-10-23T22:44:36.692Z,55.54
2022-10-23T22:47:07.116Z,55.38
2022-10-23T22:49:35.398Z,55.54
2022-10-23T22:52:05.547Z,55.29
2022-10-23T22:54:34.543Z,55.36
2022-10-23T22:57:02.877Z,55.29
2022-10-23T22:59:30.969Z,55.33
2022-10-23T23:01:59.491Z,55.36
2022-10-23T23:04:44.324Z,55.27
2022-10-23T23:07:14.037Z,55.42
2022-10-23T23:09:44.145Z,55.50
2022-10-23T23:12:14.136Z,55.28
2022-10-23T23:14:43.663Z,55.37
2022-10-23T23:17:12.357Z,55.34
2022-10-23T23:19:41.831Z,55.25
2022-10-23T23:22:10.365Z,55.46
2022-10-23T23:24:38.413Z,55.46
2022-10-23T23:27:06.625Z,55.28
2022-10-23T23:29:35.115Z,55.38
2022-10-23T23:32:03.153Z,55.20
2022-10-23T23:34:31.380Z,55.32
2022-10-23T23:37:01.179Z,55.26
2022-10-23T23:39:29.772Z,55.14
2022-10-23T23:41:58.001Z,55.42
2022-10-23T23:44:26.176Z,55.52
2022-10-23T23:46:54.620Z,55.21
2022-10-23T23:49:22.853Z,55.42
2022-10-23T23:51:51.938Z,55.25
2022-10-23T23:54:21.822Z,55.06
2022-10-23T23:56:50.400Z,55.25
2022-10-23T23:59:18.876Z,55.41
